sensor_id;sensor_type;location;lat;lon;timestamp;P1;durP1;ratioP1;P2;durP2;ratioP2
4821;SDS011;2425;47.794;13.068;2023-03-23T00:01:15;1.93;;;1.73;;
4821;SDS011;2425;47.794;13.068;2023-03-23T00:03:44;1.87;;;1.77;;
4821;SDS011;2425;47.794;13.068;2023-03-23T00:06:14;2.10;;;2.00;;
4821;SDS011;2425;47.794;13.068;2023-03-23T00:08:43;2.30;;;2.10;;
4821;SDS011;2425;47.794;13.068;2023-03-23T00:11:11;2.43;;;1.73;;
4821;SDS011;2425;47.794;13.068;2023-03-23T00:13:40;3.90;;;1.67;;
4821;SDS011;2425;47.794;13.068;2023-03-23T00:16:07;1.83;;;1.73;;
4821;SDS011;2425;47.794;13.068;2023-03-23T00:18:42;3.33;;;2.10;;
4821;SDS011;2425;47.794;13.068;2023-03-23T00:21:09;2.00;;;1.80;;
4821;SDS011;2425;47.794;13.068;2023-03-23T00:23:37;1.97;;;1.87;;
4821;SDS011;2425;47.794;13.068;2023-03-23T00:26:04;7.10;;;1.40;;
4821;SDS011;2425;47.794;13.068;2023-03-23T00:28:31;1.87;;;1.77;;
4821;SDS011;2425;47.794;13.068;2023-03-23T00:30:59;1.63;;;1.50;;
4821;SDS011;2425;47.794;13.068;2023-03-23T00:33:28;4.20;;;1.83;;
4821;SDS011;2425;47.794;13.068;2023-03-23T00:35:55;2.13;;;1.60;;
4821;SDS011;2425;47.794;13.068;2023-03-23T00:38:23;1.70;;;1.60;;
4821;SDS011;2425;47.794;13.068;2023-03-23T00:40:52;1.80;;;1.70;;
4821;SDS011;2425;47.794;13.068;2023-03-23T00:43:19;1.83;;;1.70;;
4821;SDS011;2425;47.794;13.068;2023-03-23T00:45:50;2.20;;;2.10;;
4821;SDS011;2425;47.794;13.068;2023-03-23T00:48:18;1.87;;;1.70;;
4821;SDS011;2425;47.794;13.068;2023-03-23T00:50:45;2.13;;;2.03;;
4821;SDS011;2425;47.794;13.068;2023-03-23T00:53:12;2.07;;;1.97;;
4821;SDS011;2425;47.794;13.068;2023-03-23T00:55:40;3.93;;;1.90;;
4821;SDS011;2425;47.794;13.068;2023-03-23T00:58:08;1.50;;;1.50;;
4821;SDS011;2425;47.794;13.068;2023-03-23T01:00:35;1.70;;;1.70;;
4821;SDS011;2425;47.794;13.068;2023-03-23T01:03:02;2.03;;;1.67;;
4821;SDS011;2425;47.794;13.068;2023-03-23T01:05:29;1.93;;;1.83;;
4821;SDS011;2425;47.794;13.068;2023-03-23T01:07:59;2.00;;;1.40;;
4821;SDS011;2425;47.794;13.068;2023-03-23T01:10:26;2.30;;;2.20;;
4821;SDS011;2425;47.794;13.068;2023-03-23T01:12:54;1.87;;;1.77;;
4821;SDS011;2425;47.794;13.068;2023-03-23T01:15:22;4.03;;;1.77;;
4821;SDS011;2425;47.794;13.068;2023-03-23T01:17:48;1.33;;;1.33;;
4821;SDS011;2425;47.794;13.068;2023-03-23T01:20:15;6.63;;;1.77;;
4821;SDS011;2425;47.794;13.068;2023-03-23T01:22:42;1.93;;;1.70;;
4821;SDS011;2425;47.794;13.068;2023-03-23T01:25:10;1.80;;;1.70;;
4821;SDS011;2425;47.794;13.068;2023-03-23T01:27:38;1.83;;;1.73;;
4821;SDS011;2425;47.794;13.068;2023-03-23T01:30:05;1.60;;;1.53;;
4821;SDS011;2425;47.794;13.068;2023-03-23T01:32:35;1.70;;;1.70;;
4821;SDS011;2425;47.794;13.068;2023-03-23T01:35:01;1.77;;;1.67;;
4821;SDS011;2425;47.794;13.068;2023-03-23T01:37:28;1.40;;;1.40;;
4821;SDS011;2425;47.794;13.068;2023-03-23T01:39:56;2.23;;;1.70;;
4821;SDS011;2425;47.794;13.068;2023-03-23T01:42:23;1.57;;;1.47;;
4821;SDS011;2425;47.794;13.068;2023-03-23T01:47:49;1.20;;;1.20;;
4821;SDS011;2425;47.794;13.068;2023-03-23T01:50:18;1.63;;;1.63;;
4821;SDS011;2425;47.794;13.068;2023-03-23T01:52:45;1.30;;;1.30;;
4821;SDS011;2425;47.794;13.068;2023-03-23T01:55:13;1.60;;;1.60;;
4821;SDS011;2425;47.794;13.068;2023-03-23T01:57:40;1.43;;;1.43;;
4821;SDS011;2425;47.794;13.068;2023-03-23T02:00:08;3.07;;;1.70;;
4821;SDS011;2425;47.794;13.068;2023-03-23T02:02:40;1.93;;;1.80;;
4821;SDS011;2425;47.794;13.068;2023-03-23T02:05:10;2.40;;;1.50;;
4821;SDS011;2425;47.794;13.068;2023-03-23T02:07:38;1.53;;;1.50;;
4821;SDS011;2425;47.794;13.068;2023-03-23T02:10:05;2.00;;;1.90;;
4821;SDS011;2425;47.794;13.068;2023-03-23T02:12:32;2.50;;;1.33;;
4821;SDS011;2425;47.794;13.068;2023-03-23T02:14:59;3.13;;;1.77;;
4821;SDS011;2425;47.794;13.068;2023-03-23T02:17:29;1.90;;;1.80;;
4821;SDS011;2425;47.794;13.068;2023-03-23T02:20:04;1.83;;;1.73;;
4821;SDS011;2425;47.794;13.068;2023-03-23T02:22:48;1.60;;;1.50;;
4821;SDS011;2425;47.794;13.068;2023-03-23T02:25:32;1.33;;;1.33;;
4821;SDS011;2425;47.794;13.068;2023-03-23T02:28:19;1.80;;;1.70;;
4821;SDS011;2425;47.794;13.068;2023-03-23T02:31:01;1.43;;;1.33;;
4821;SDS011;2425;47.794;13.068;2023-03-23T02:33:41;1.70;;;1.63;;
4821;SDS011;2425;47.794;13.068;2023-03-23T02:36:13;1.30;;;1.30;;
4821;SDS011;2425;47.794;13.068;2023-03-23T02:38:44;1.30;;;1.30;;
4821;SDS011;2425;47.794;13.068;2023-03-23T02:41:18;1.90;;;1.80;;
4821;SDS011;2425;47.794;13.068;2023-03-23T02:43:46;3.27;;;1.60;;
4821;SDS011;2425;47.794;13.068;2023-03-23T02:46:13;1.60;;;1.50;;
4821;SDS011;2425;47.794;13.068;2023-03-23T02:48:42;1.40;;;1.33;;
4821;SDS011;2425;47.794;13.068;2023-03-23T02:51:10;1.50;;;1.50;;
4821;SDS011;2425;47.794;13.068;2023-03-23T02:53:40;1.90;;;1.80;;
4821;SDS011;2425;47.794;13.068;2023-03-23T02:56:08;1.67;;;1.57;;
4821;SDS011;2425;47.794;13.068;2023-03-23T02:58:37;1.10;;;1.10;;
4821;SDS011;2425;47.794;13.068;2023-03-23T03:01:13;1.70;;;1.60;;
4821;SDS011;2425;47.794;13.068;2023-03-23T03:03:44;1.57;;;1.47;;
4821;SDS011;2425;47.794;13.068;2023-03-23T03:06:14;1.40;;;1.30;;
4821;SDS011;2425;47.794;13.068;2023-03-23T03:08:50;1.40;;;1.40;;
4821;SDS011;2425;47.794;13.068;2023-03-23T03:11:19;1.50;;;1.40;;
4821;SDS011;2425;47.794;13.068;2023-03-23T03:13:47;1.23;;;1.23;;
4821;SDS011;2425;47.794;13.068;2023-03-23T03:16:20;1.53;;;1.53;;
4821;SDS011;2425;47.794;13.068;2023-03-23T03:18:52;1.60;;;1.60;;
4821;SDS011;2425;47.794;13.068;2023-03-23T03:21:22;1.60;;;1.60;;
4821;SDS011;2425;47.794;13.068;2023-03-23T03:23:52;1.67;;;1.47;;
4821;SDS011;2425;47.794;13.068;2023-03-23T03:26:21;1.57;;;1.47;;
4821;SDS011;2425;47.794;13.068;2023-03-23T03:28:52;1.60;;;1.50;;
4821;SDS011;2425;47.794;13.068;2023-03-23T03:31:20;1.40;;;1.40;;
4821;SDS011;2425;47.794;13.068;2023-03-23T03:33:48;1.70;;;1.60;;
4821;SDS011;2425;47.794;13.068;2023-03-23T03:36:18;1.70;;;1.30;;
4821;SDS011;2425;47.794;13.068;2023-03-23T03:38:47;1.40;;;1.40;;
4821;SDS011;2425;47.794;13.068;2023-03-23T03:41:15;2.20;;;1.60;;
4821;SDS011;2425;47.794;13.068;2023-03-23T03:43:42;1.33;;;1.30;;
4821;SDS011;2425;47.794;13.068;2023-03-23T03:46:09;1.67;;;1.57;;
4821;SDS011;2425;47.794;13.068;2023-03-23T03:48:36;1.40;;;1.40;;
4821;SDS011;2425;47.794;13.068;2023-03-23T03:51:03;1.53;;;1.40;;
4821;SDS011;2425;47.794;13.068;2023-03-23T03:53:31;1.10;;;1.10;;
4821;SDS011;2425;47.794;13.068;2023-03-23T03:55:58;1.20;;;1.20;;
4821;SDS011;2425;47.794;13.068;2023-03-23T03:58:26;1.33;;;1.33;;
4821;SDS011;2425;47.794;13.068;2023-03-23T04:00:57;1.40;;;1.40;;
4821;SDS011;2425;47.794;13.068;2023-03-23T04:03:24;1.30;;;1.30;;
4821;SDS011;2425;47.794;13.068;2023-03-23T04:05:51;1.40;;;1.30;;
4821;SDS011;2425;47.794;13.068;2023-03-23T04:08:20;1.17;;;1.17;;
4821;SDS011;2425;47.794;13.068;2023-03-23T04:10:48;2.27;;;1.50;;
4821;SDS011;2425;47.794;13.068;2023-03-23T04:13:15;1.10;;;1.10;;
4821;SDS011;2425;47.794;13.068;2023-03-23T04:15:43;1.60;;;1.60;;
4821;SDS011;2425;47.794;13.068;2023-03-23T04:18:10;1.30;;;1.30;;
4821;SDS011;2425;47.794;13.068;2023-03-23T04:20:37;1.67;;;1.27;;
4821;SDS011;2425;47.794;13.068;2023-03-23T04:23:12;1.13;;;1.13;;
4821;SDS011;2425;47.794;13.068;2023-03-23T04:25:49;1.33;;;1.33;;
4821;SDS011;2425;47.794;13.068;2023-03-23T04:28:17;1.30;;;1.20;;
4821;SDS011;2425;47.794;13.068;2023-03-23T04:30:48;1.30;;;1.30;;
4821;SDS011;2425;47.794;13.068;2023-03-23T04:33:18;1.47;;;1.47;;
4821;SDS011;2425;47.794;13.068;2023-03-23T04:35:45;1.30;;;1.30;;
4821;SDS011;2425;47.794;13.068;2023-03-23T04:38:13;1.33;;;1.10;;
4821;SDS011;2425;47.794;13.068;2023-03-23T04:40:41;1.40;;;1.30;;
4821;SDS011;2425;47.794;13.068;2023-03-23T04:43:10;0.90;;;0.90;;
4821;SDS011;2425;47.794;13.068;2023-03-23T04:45:38;1.30;;;1.30;;
4821;SDS011;2425;47.794;13.068;2023-03-23T04:48:06;1.00;;;1.00;;
4821;SDS011;2425;47.794;13.068;2023-03-23T04:50:33;1.53;;;1.53;;
4821;SDS011;2425;47.794;13.068;2023-03-23T04:53:01;1.40;;;1.40;;
4821;SDS011;2425;47.794;13.068;2023-03-23T04:55:29;1.47;;;1.47;;
4821;SDS011;2425;47.794;13.068;2023-03-23T04:57:56;1.23;;;1.23;;
4821;SDS011;2425;47.794;13.068;2023-03-23T05:00:26;1.20;;;1.20;;
4821;SDS011;2425;47.794;13.068;2023-03-23T05:02:53;1.37;;;1.37;;
4821;SDS011;2425;47.794;13.068;2023-03-23T05:05:20;1.10;;;1.10;;
4821;SDS011;2425;47.794;13.068;2023-03-23T05:07:48;3.37;;;1.67;;
4821;SDS011;2425;47.794;13.068;2023-03-23T05:10:15;1.57;;;1.47;;
4821;SDS011;2425;47.794;13.068;2023-03-23T05:12:42;1.43;;;1.33;;
4821;SDS011;2425;47.794;13.068;2023-03-23T05:15:10;1.70;;;1.40;;
4821;SDS011;2425;47.794;13.068;2023-03-23T05:17:39;1.00;;;1.00;;
4821;SDS011;2425;47.794;13.068;2023-03-23T05:20:09;1.90;;;1.80;;
4821;SDS011;2425;47.794;13.068;2023-03-23T05:22:37;1.50;;;1.40;;
4821;SDS011;2425;47.794;13.068;2023-03-23T05:25:04;1.47;;;1.47;;
4821;SDS011;2425;47.794;13.068;2023-03-23T05:27:34;1.20;;;1.20;;
4821;SDS011;2425;47.794;13.068;2023-03-23T05:30:00;3.70;;;1.63;;
4821;SDS011;2425;47.794;13.068;2023-03-23T05:32:27;1.40;;;1.23;;
4821;SDS011;2425;47.794;13.068;2023-03-23T05:34:57;1.90;;;1.53;;
4821;SDS011;2425;47.794;13.068;2023-03-23T05:37:25;1.30;;;1.30;;
4821;SDS011;2425;47.794;13.068;2023-03-23T05:39:53;1.63;;;1.53;;
4821;SDS011;2425;47.794;13.068;2023-03-23T05:42:20;1.70;;;1.60;;
4821;SDS011;2425;47.794;13.068;2023-03-23T05:44:47;1.60;;;1.50;;
4821;SDS011;2425;47.794;13.068;2023-03-23T05:47:14;1.87;;;1.60;;
4821;SDS011;2425;47.794;13.068;2023-03-23T05:49:41;2.30;;;1.57;;
4821;SDS011;2425;47.794;13.068;2023-03-23T05:52:09;1.60;;;1.50;;
4821;SDS011;2425;47.794;13.068;2023-03-23T05:54:36;2.10;;;1.40;;
4821;SDS011;2425;47.794;13.068;2023-03-23T05:57:03;1.20;;;1.20;;
4821;SDS011;2425;47.794;13.068;2023-03-23T05:59:30;4.53;;;1.40;;
4821;SDS011;2425;47.794;13.068;2023-03-23T06:01:58;1.80;;;1.47;;
4821;SDS011;2425;47.794;13.068;2023-03-23T06:04:25;1.43;;;1.30;;
4821;SDS011;2425;47.794;13.068;2023-03-23T06:06:52;1.67;;;1.60;;
4821;SDS011;2425;47.794;13.068;2023-03-23T06:09:20;2.50;;;2.00;;
4821;SDS011;2425;47.794;13.068;2023-03-23T06:11:48;1.63;;;1.63;;
4821;SDS011;2425;47.794;13.068;2023-03-23T06:14:15;1.77;;;1.70;;
4821;SDS011;2425;47.794;13.068;2023-03-23T06:16:42;4.20;;;2.00;;
4821;SDS011;2425;47.794;13.068;2023-03-23T06:19:09;2.03;;;1.93;;
4821;SDS011;2425;47.794;13.068;2023-03-23T06:21:36;1.70;;;1.60;;
4821;SDS011;2425;47.794;13.068;2023-03-23T06:24:03;3.57;;;1.70;;
4821;SDS011;2425;47.794;13.068;2023-03-23T06:26:32;4.60;;;2.10;;
4821;SDS011;2425;47.794;13.068;2023-03-23T06:29:01;1.97;;;1.87;;
4821;SDS011;2425;47.794;13.068;2023-03-23T06:31:28;3.63;;;1.80;;
4821;SDS011;2425;47.794;13.068;2023-03-23T06:33:56;1.77;;;1.67;;
4821;SDS011;2425;47.794;13.068;2023-03-23T06:36:23;1.90;;;1.80;;
4821;SDS011;2425;47.794;13.068;2023-03-23T06:38:51;1.50;;;1.40;;
4821;SDS011;2425;47.794;13.068;2023-03-23T06:41:18;1.70;;;1.70;;
4821;SDS011;2425;47.794;13.068;2023-03-23T06:43:46;1.87;;;1.80;;
4821;SDS011;2425;47.794;13.068;2023-03-23T06:46:13;1.83;;;1.73;;
4821;SDS011;2425;47.794;13.068;2023-03-23T06:48:40;2.50;;;1.87;;
4821;SDS011;2425;47.794;13.068;2023-03-23T06:51:07;1.60;;;1.60;;
4821;SDS011;2425;47.794;13.068;2023-03-23T06:53:33;2.27;;;1.70;;
4821;SDS011;2425;47.794;13.068;2023-03-23T06:56:01;4.30;;;1.80;;
4821;SDS011;2425;47.794;13.068;2023-03-23T06:58:27;1.73;;;1.73;;
4821;SDS011;2425;47.794;13.068;2023-03-23T07:00:56;6.07;;;1.77;;
4821;SDS011;2425;47.794;13.068;2023-03-23T07:03:23;3.57;;;2.00;;
4821;SDS011;2425;47.794;13.068;2023-03-23T07:05:51;2.00;;;2.00;;
4821;SDS011;2425;47.794;13.068;2023-03-23T07:08:17;5.03;;;1.83;;
4821;SDS011;2425;47.794;13.068;2023-03-23T07:10:44;2.00;;;1.90;;
4821;SDS011;2425;47.794;13.068;2023-03-23T07:13:11;3.30;;;1.80;;
4821;SDS011;2425;47.794;13.068;2023-03-23T07:15:38;4.10;;;2.40;;
4821;SDS011;2425;47.794;13.068;2023-03-23T07:18:06;1.97;;;1.87;;
4821;SDS011;2425;47.794;13.068;2023-03-23T07:20:33;1.60;;;1.57;;
4821;SDS011;2425;47.794;13.068;2023-03-23T07:22:59;3.03;;;1.80;;
4821;SDS011;2425;47.794;13.068;2023-03-23T07:25:27;2.10;;;1.90;;
4821;SDS011;2425;47.794;13.068;2023-03-23T07:27:54;2.07;;;1.93;;
4821;SDS011;2425;47.794;13.068;2023-03-23T07:30:21;4.53;;;2.00;;
4821;SDS011;2425;47.794;13.068;2023-03-23T07:32:47;2.57;;;1.50;;
4821;SDS011;2425;47.794;13.068;2023-03-23T07:35:16;2.27;;;1.60;;
4821;SDS011;2425;47.794;13.068;2023-03-23T07:37:42;1.60;;;1.60;;
4821;SDS011;2425;47.794;13.068;2023-03-23T07:40:10;3.00;;;1.93;;
4821;SDS011;2425;47.794;13.068;2023-03-23T07:42:40;2.80;;;1.70;;
4821;SDS011;2425;47.794;13.068;2023-03-23T07:45:08;1.73;;;1.73;;
4821;SDS011;2425;47.794;13.068;2023-03-23T07:47:36;2.20;;;1.80;;
4821;SDS011;2425;47.794;13.068;2023-03-23T07:50:03;2.10;;;1.60;;
4821;SDS011;2425;47.794;13.068;2023-03-23T07:52:31;9.23;;;1.97;;
4821;SDS011;2425;47.794;13.068;2023-03-23T07:54:58;3.87;;;1.70;;
4821;SDS011;2425;47.794;13.068;2023-03-23T07:57:26;6.50;;;1.80;;
4821;SDS011;2425;47.794;13.068;2023-03-23T07:59:53;2.00;;;1.90;;
4821;SDS011;2425;47.794;13.068;2023-03-23T08:02:20;4.63;;;1.40;;
4821;SDS011;2425;47.794;13.068;2023-03-23T08:04:47;4.23;;;1.60;;
4821;SDS011;2425;47.794;13.068;2023-03-23T08:07:14;1.77;;;1.67;;
4821;SDS011;2425;47.794;13.068;2023-03-23T08:09:43;3.13;;;1.60;;
4821;SDS011;2425;47.794;13.068;2023-03-23T08:12:10;2.10;;;1.70;;
4821;SDS011;2425;47.794;13.068;2023-03-23T08:14:37;1.87;;;1.67;;
4821;SDS011;2425;47.794;13.068;2023-03-23T08:17:04;3.17;;;1.73;;
4821;SDS011;2425;47.794;13.068;2023-03-23T08:19:31;6.10;;;1.70;;
4821;SDS011;2425;47.794;13.068;2023-03-23T08:22:02;1.67;;;1.60;;
4821;SDS011;2425;47.794;13.068;2023-03-23T08:24:29;2.67;;;1.60;;
4821;SDS011;2425;47.794;13.068;2023-03-23T08:26:57;3.77;;;2.10;;
4821;SDS011;2425;47.794;13.068;2023-03-23T08:29:24;1.73;;;1.60;;
4821;SDS011;2425;47.794;13.068;2023-03-23T08:31:51;1.87;;;1.77;;
4821;SDS011;2425;47.794;13.068;2023-03-23T08:34:18;2.20;;;1.80;;
4821;SDS011;2425;47.794;13.068;2023-03-23T08:36:45;1.97;;;1.77;;
4821;SDS011;2425;47.794;13.068;2023-03-23T08:39:12;3.17;;;1.50;;
4821;SDS011;2425;47.794;13.068;2023-03-23T08:41:40;2.87;;;1.70;;
4821;SDS011;2425;47.794;13.068;2023-03-23T08:44:08;1.80;;;1.60;;
4821;SDS011;2425;47.794;13.068;2023-03-23T08:46:35;1.70;;;1.60;;
4821;SDS011;2425;47.794;13.068;2023-03-23T08:49:01;1.37;;;1.37;;
4821;SDS011;2425;47.794;13.068;2023-03-23T08:51:28;3.50;;;1.80;;
4821;SDS011;2425;47.794;13.068;2023-03-23T08:53:55;1.63;;;1.53;;
4821;SDS011;2425;47.794;13.068;2023-03-23T08:56:22;8.00;;;1.90;;
4821;SDS011;2425;47.794;13.068;2023-03-23T08:58:49;1.87;;;1.77;;
4821;SDS011;2425;47.794;13.068;2023-03-23T09:01:17;1.53;;;1.40;;
4821;SDS011;2425;47.794;13.068;2023-03-23T09:03:43;1.50;;;1.40;;
4821;SDS011;2425;47.794;13.068;2023-03-23T09:06:10;3.30;;;1.50;;
4821;SDS011;2425;47.794;13.068;2023-03-23T09:08:37;2.20;;;1.60;;
4821;SDS011;2425;47.794;13.068;2023-03-23T09:11:05;10.10;;;1.80;;
4821;SDS011;2425;47.794;13.068;2023-03-23T09:13:34;1.77;;;1.37;;
4821;SDS011;2425;47.794;13.068;2023-03-23T09:16:02;1.57;;;1.47;;
4821;SDS011;2425;47.794;13.068;2023-03-23T09:18:31;1.97;;;1.87;;
4821;SDS011;2425;47.794;13.068;2023-03-23T09:20:59;1.60;;;1.50;;
4821;SDS011;2425;47.794;13.068;2023-03-23T09:23:26;2.83;;;1.47;;
4821;SDS011;2425;47.794;13.068;2023-03-23T09:25:53;2.60;;;1.57;;
4821;SDS011;2425;47.794;13.068;2023-03-23T09:28:19;1.70;;;1.40;;
4821;SDS011;2425;47.794;13.068;2023-03-23T09:30:46;1.70;;;1.50;;
4821;SDS011;2425;47.794;13.068;2023-03-23T09:33:14;1.73;;;1.67;;
4821;SDS011;2425;47.794;13.068;2023-03-23T09:35:42;3.30;;;1.23;;
4821;SDS011;2425;47.794;13.068;2023-03-23T09:38:09;1.50;;;1.40;;
4821;SDS011;2425;47.794;13.068;2023-03-23T09:40:39;2.03;;;1.33;;
4821;SDS011;2425;47.794;13.068;2023-03-23T09:43:17;1.40;;;1.40;;
4821;SDS011;2425;47.794;13.068;2023-03-23T09:45:58;1.30;;;1.30;;
4821;SDS011;2425;47.794;13.068;2023-03-23T09:48:32;1.40;;;1.40;;
4821;SDS011;2425;47.794;13.068;2023-03-23T09:51:07;1.60;;;1.50;;
4821;SDS011;2425;47.794;13.068;2023-03-23T09:53:38;3.20;;;1.43;;
4821;SDS011;2425;47.794;13.068;2023-03-23T09:56:09;1.60;;;1.40;;
4821;SDS011;2425;47.794;13.068;2023-03-23T09:58:41;1.50;;;1.50;;
4821;SDS011;2425;47.794;13.068;2023-03-23T10:01:12;4.63;;;1.30;;
4821;SDS011;2425;47.794;13.068;2023-03-23T10:03:43;2.20;;;1.40;;
4821;SDS011;2425;47.794;13.068;2023-03-23T10:06:14;8.33;;;1.70;;
4821;SDS011;2425;47.794;13.068;2023-03-23T10:08:43;9.03;;;2.17;;
4821;SDS011;2425;47.794;13.068;2023-03-23T10:11:14;2.40;;;1.67;;
4821;SDS011;2425;47.794;13.068;2023-03-23T10:16:43;4.00;;;1.50;;
4821;SDS011;2425;47.794;13.068;2023-03-23T10:19:16;1.33;;;1.33;;
4821;SDS011;2425;47.794;13.068;2023-03-23T10:21:50;1.50;;;1.40;;
4821;SDS011;2425;47.794;13.068;2023-03-23T10:24:19;1.50;;;1.50;;
4821;SDS011;2425;47.794;13.068;2023-03-23T10:26:52;2.90;;;1.63;;
4821;SDS011;2425;47.794;13.068;2023-03-23T10:29:24;1.57;;;1.47;;
4821;SDS011;2425;47.794;13.068;2023-03-23T10:31:59;1.53;;;1.40;;
4821;SDS011;2425;47.794;13.068;2023-03-23T10:34:30;1.43;;;1.43;;
4821;SDS011;2425;47.794;13.068;2023-03-23T10:37:04;1.40;;;1.40;;
4821;SDS011;2425;47.794;13.068;2023-03-23T10:39:37;1.60;;;1.50;;
4821;SDS011;2425;47.794;13.068;2023-03-23T10:42:08;1.73;;;1.63;;
4821;SDS011;2425;47.794;13.068;2023-03-23T10:44:34;1.27;;;1.27;;
4821;SDS011;2425;47.794;13.068;2023-03-23T10:47:02;1.40;;;1.30;;
4821;SDS011;2425;47.794;13.068;2023-03-23T10:49:33;1.90;;;1.30;;
4821;SDS011;2425;47.794;13.068;2023-03-23T10:52:07;1.30;;;1.20;;
4821;SDS011;2425;47.794;13.068;2023-03-23T10:54:45;4.80;;;1.10;;
4821;SDS011;2425;47.794;13.068;2023-03-23T10:57:20;1.20;;;1.20;;
4821;SDS011;2425;47.794;13.068;2023-03-23T10:59:48;1.40;;;1.40;;
4821;SDS011;2425;47.794;13.068;2023-03-23T11:02:17;3.80;;;1.30;;
4821;SDS011;2425;47.794;13.068;2023-03-23T11:04:45;1.73;;;1.30;;
4821;SDS011;2425;47.794;13.068;2023-03-23T11:07:17;2.70;;;1.20;;
4821;SDS011;2425;47.794;13.068;2023-03-23T11:09:56;2.10;;;1.10;;
4821;SDS011;2425;47.794;13.068;2023-03-23T11:12:24;1.83;;;1.53;;
4821;SDS011;2425;47.794;13.068;2023-03-23T11:14:51;1.20;;;1.10;;
4821;SDS011;2425;47.794;13.068;2023-03-23T11:17:22;1.30;;;1.27;;
4821;SDS011;2425;47.794;13.068;2023-03-23T11:19:50;1.17;;;1.17;;
4821;SDS011;2425;47.794;13.068;2023-03-23T11:22:27;1.17;;;1.17;;
4821;SDS011;2425;47.794;13.068;2023-03-23T11:24:55;1.30;;;1.30;;
4821;SDS011;2425;47.794;13.068;2023-03-23T11:27:26;1.10;;;1.10;;
4821;SDS011;2425;47.794;13.068;2023-03-23T11:29:54;1.00;;;1.00;;
4821;SDS011;2425;47.794;13.068;2023-03-23T11:32:23;2.57;;;1.40;;
4821;SDS011;2425;47.794;13.068;2023-03-23T11:34:54;1.20;;;1.20;;
4821;SDS011;2425;47.794;13.068;2023-03-23T11:37:25;1.40;;;1.40;;
4821;SDS011;2425;47.794;13.068;2023-03-23T11:39:57;1.07;;;1.07;;
4821;SDS011;2425;47.794;13.068;2023-03-23T11:42:25;1.30;;;1.30;;
4821;SDS011;2425;47.794;13.068;2023-03-23T11:45:03;0.83;;;0.83;;
4821;SDS011;2425;47.794;13.068;2023-03-23T11:47:40;1.00;;;1.00;;
4821;SDS011;2425;47.794;13.068;2023-03-23T11:50:11;1.00;;;1.00;;
4821;SDS011;2425;47.794;13.068;2023-03-23T11:52:43;2.00;;;1.10;;
4821;SDS011;2425;47.794;13.068;2023-03-23T11:55:14;4.83;;;1.40;;
4821;SDS011;2425;47.794;13.068;2023-03-23T11:57:43;5.10;;;1.60;;
4821;SDS011;2425;47.794;13.068;2023-03-23T12:00:14;6.43;;;1.20;;
4821;SDS011;2425;47.794;13.068;2023-03-23T12:05:33;2.47;;;1.10;;
4821;SDS011;2425;47.794;13.068;2023-03-23T12:08:09;1.10;;;1.10;;
4821;SDS011;2425;47.794;13.068;2023-03-23T12:10:44;0.90;;;0.90;;
4821;SDS011;2425;47.794;13.068;2023-03-23T12:13:17;1.13;;;1.13;;
4821;SDS011;2425;47.794;13.068;2023-03-23T12:15:53;1.07;;;1.00;;
4821;SDS011;2425;47.794;13.068;2023-03-23T12:18:28;1.07;;;1.07;;
4821;SDS011;2425;47.794;13.068;2023-03-23T12:21:00;1.33;;;1.23;;
4821;SDS011;2425;47.794;13.068;2023-03-23T12:23:33;1.20;;;1.10;;
4821;SDS011;2425;47.794;13.068;2023-03-23T12:26:15;1.23;;;1.23;;
4821;SDS011;2425;47.794;13.068;2023-03-23T12:28:56;1.10;;;1.10;;
4821;SDS011;2425;47.794;13.068;2023-03-23T12:31:32;1.20;;;1.20;;
4821;SDS011;2425;47.794;13.068;2023-03-23T12:34:04;1.03;;;1.03;;
4821;SDS011;2425;47.794;13.068;2023-03-23T12:36:37;5.50;;;1.30;;
4821;SDS011;2425;47.794;13.068;2023-03-23T12:42:12;1.80;;;1.00;;
4821;SDS011;2425;47.794;13.068;2023-03-23T12:44:45;1.27;;;0.83;;
4821;SDS011;2425;47.794;13.068;2023-03-23T12:47:17;1.13;;;0.97;;
4821;SDS011;2425;47.794;13.068;2023-03-23T12:49:55;2.23;;;1.23;;
4821;SDS011;2425;47.794;13.068;2023-03-23T12:52:25;1.27;;;1.17;;
4821;SDS011;2425;47.794;13.068;2023-03-23T12:54:58;6.33;;;1.40;;
4821;SDS011;2425;47.794;13.068;2023-03-23T12:57:28;0.90;;;0.90;;
4821;SDS011;2425;47.794;13.068;2023-03-23T13:00:01;1.03;;;1.00;;
4821;SDS011;2425;47.794;13.068;2023-03-23T13:02:39;1.10;;;1.10;;
4821;SDS011;2425;47.794;13.068;2023-03-23T13:05:09;0.90;;;0.90;;
4821;SDS011;2425;47.794;13.068;2023-03-23T13:07:37;0.97;;;0.97;;
4821;SDS011;2425;47.794;13.068;2023-03-23T13:10:12;1.33;;;1.00;;
4821;SDS011;2425;47.794;13.068;2023-03-23T13:12:45;1.00;;;1.00;;
4821;SDS011;2425;47.794;13.068;2023-03-23T13:15:16;0.90;;;0.90;;
4821;SDS011;2425;47.794;13.068;2023-03-23T13:17:51;3.27;;;0.97;;
4821;SDS011;2425;47.794;13.068;2023-03-23T13:20:36;0.90;;;0.90;;
4821;SDS011;2425;47.794;13.068;2023-03-23T13:23:18;1.17;;;1.07;;
4821;SDS011;2425;47.794;13.068;2023-03-23T13:25:50;1.17;;;1.10;;
4821;SDS011;2425;47.794;13.068;2023-03-23T13:28:20;1.20;;;1.20;;
4821;SDS011;2425;47.794;13.068;2023-03-23T13:30:58;1.00;;;1.00;;
4821;SDS011;2425;47.794;13.068;2023-03-23T13:33:28;2.13;;;0.90;;
4821;SDS011;2425;47.794;13.068;2023-03-23T13:35:56;1.00;;;1.00;;
4821;SDS011;2425;47.794;13.068;2023-03-23T13:38:23;0.80;;;0.80;;
4821;SDS011;2425;47.794;13.068;2023-03-23T13:40:54;1.10;;;1.00;;
4821;SDS011;2425;47.794;13.068;2023-03-23T13:43:27;1.50;;;1.20;;
4821;SDS011;2425;47.794;13.068;2023-03-23T13:45:55;1.23;;;1.00;;
4821;SDS011;2425;47.794;13.068;2023-03-23T13:48:22;1.80;;;0.83;;
4821;SDS011;2425;47.794;13.068;2023-03-23T13:50:51;0.80;;;0.80;;
4821;SDS011;2425;47.794;13.068;2023-03-23T13:53:24;1.80;;;1.07;;
4821;SDS011;2425;47.794;13.068;2023-03-23T13:56:06;1.47;;;1.00;;
4821;SDS011;2425;47.794;13.068;2023-03-23T13:58:44;0.97;;;0.70;;
4821;SDS011;2425;47.794;13.068;2023-03-23T14:01:13;1.10;;;1.10;;
4821;SDS011;2425;47.794;13.068;2023-03-23T14:03:42;0.67;;;0.67;;
4821;SDS011;2425;47.794;13.068;2023-03-23T14:06:15;1.20;;;1.10;;
4821;SDS011;2425;47.794;13.068;2023-03-23T14:08:44;0.80;;;0.80;;
4821;SDS011;2425;47.794;13.068;2023-03-23T14:11:15;1.20;;;1.10;;
4821;SDS011;2425;47.794;13.068;2023-03-23T14:13:45;0.90;;;0.90;;
4821;SDS011;2425;47.794;13.068;2023-03-23T14:16:16;1.10;;;1.10;;
4821;SDS011;2425;47.794;13.068;2023-03-23T14:18:50;1.10;;;1.10;;
4821;SDS011;2425;47.794;13.068;2023-03-23T14:21:22;1.30;;;1.20;;
4821;SDS011;2425;47.794;13.068;2023-03-23T14:23:52;1.60;;;1.17;;
4821;SDS011;2425;47.794;13.068;2023-03-23T14:26:22;1.10;;;1.10;;
4821;SDS011;2425;47.794;13.068;2023-03-23T14:28:49;0.90;;;0.90;;
4821;SDS011;2425;47.794;13.068;2023-03-23T14:31:18;1.00;;;1.00;;
4821;SDS011;2425;47.794;13.068;2023-03-23T14:33:46;2.23;;;0.80;;
4821;SDS011;2425;47.794;13.068;2023-03-23T14:36:14;1.50;;;1.30;;
4821;SDS011;2425;47.794;13.068;2023-03-23T14:38:41;4.10;;;1.10;;
4821;SDS011;2425;47.794;13.068;2023-03-23T14:41:10;1.50;;;1.30;;
4821;SDS011;2425;47.794;13.068;2023-03-23T14:43:39;1.27;;;1.20;;
4821;SDS011;2425;47.794;13.068;2023-03-23T14:46:06;2.10;;;1.33;;
4821;SDS011;2425;47.794;13.068;2023-03-23T14:48:34;0.90;;;0.90;;
4821;SDS011;2425;47.794;13.068;2023-03-23T14:51:03;1.30;;;1.30;;
4821;SDS011;2425;47.794;13.068;2023-03-23T14:53:33;4.43;;;1.10;;
4821;SDS011;2425;47.794;13.068;2023-03-23T14:56:02;0.97;;;0.97;;
4821;SDS011;2425;47.794;13.068;2023-03-23T14:58:35;1.00;;;1.00;;
4821;SDS011;2425;47.794;13.068;2023-03-23T15:01:05;1.10;;;1.10;;
4821;SDS011;2425;47.794;13.068;2023-03-23T15:03:34;1.20;;;1.20;;
4821;SDS011;2425;47.794;13.068;2023-03-23T15:06:03;0.97;;;0.97;;
4821;SDS011;2425;47.794;13.068;2023-03-23T15:08:32;1.03;;;1.03;;
4821;SDS011;2425;47.794;13.068;2023-03-23T15:11:03;0.90;;;0.90;;
4821;SDS011;2425;47.794;13.068;2023-03-23T15:13:33;1.03;;;1.03;;
4821;SDS011;2425;47.794;13.068;2023-03-23T15:16:01;1.30;;;1.20;;
4821;SDS011;2425;47.794;13.068;2023-03-23T15:18:32;0.80;;;0.80;;
4821;SDS011;2425;47.794;13.068;2023-03-23T15:21:07;5.87;;;0.80;;
4821;SDS011;2425;47.794;13.068;2023-03-23T15:23:35;10.50;;;1.17;;
4821;SDS011;2425;47.794;13.068;2023-03-23T15:26:22;1.00;;;1.00;;